Startpagina
METAR-TAF:

METAR-TAF

Vliegvelden :

Kish, Iran

breedte: 26-31-36N, lengte: 053-58-54E, hoogte: 30 m

Actueel weer

Dit bericht is 49 minuten geleden gemaakt, om 18:00 UTC
Wind 8 kt uit het westen
Temperatuur 19°C
Vochtigheid 56%
Druk 1012 hPa
Zicht 10 km of meer
Weinig wolken op 3500 ft

METAR: OIBK 191800Z 28008KT 9999 FEW035 19/10 Q1012

Tijdstip: 22:19 (18:49 UTC)

Verwachting

Dit bericht is 1 uur en het 19 minuten geleden gemaakt, om 17:30 UTC
Verwachting geldig van 19 om 18 UTC tot 20 om 24 UTC
Wind 16 kt uit het westen
Zicht: 7000 m
Tijdelijke
van 19 om 20 UTC tot 20 om 03 UTC
Wind 30 kt uit het westen

TAF: OIBK 191730Z 1918/2024 28016KT 7000 NSC TEMPO 1920/2003 28030KT

Waarnemingen en weersverwachtingen van meer dan 4000 vliegvelden (METAR en TAF).

De beschikbare stations zijn de gele en rode punten op de kaart.

Ga met uw muis naar het station om de naam te zien.

Klik dan om waarnemingen en weersverwachtingen te zien.

kaart wijzigen: klik op de groene knoppen met een zwart kruis om in te zoomen, op de groene knop met een streepje om uit te zoomen of op de groene pijlen voor aangrenzende kaarten.


METAR-TAF: